createdAt,value
2022-11-08T00:02:21.352Z,100391.16
2022-11-08T00:04:47.875Z,100395.84
2022-11-08T00:07:33.079Z,100392.84
2022-11-08T00:10:17.827Z,100395.78
2022-11-08T00:13:02.671Z,100387.66
2022-11-08T00:15:29.490Z,100399.31
2022-11-08T00:17:56.649Z,100396.97
2022-11-08T00:20:23.180Z,100393.84
2022-11-08T00:22:49.607Z,100406.59
2022-11-08T00:25:16.177Z,100410.13
2022-11-08T00:27:42.642Z,100404.31
2022-11-08T00:30:09.644Z,100408.03
2022-11-08T00:32:36.108Z,100404.28
2022-11-08T00:35:02.550Z,100408.03
2022-11-08T00:37:29.119Z,100412.81
2022-11-08T00:39:55.562Z,100402.34
2022-11-08T00:42:21.993Z,100394.84
2022-11-08T00:44:48.437Z,100393.09
2022-11-08T00:47:14.910Z,100402.44
2022-11-08T00:49:41.401Z,100396.53
2022-11-08T00:52:07.835Z,100406.00
2022-11-08T00:54:34.638Z,100403.22
2022-11-08T00:57:01.137Z,100412.50
2022-11-08T00:59:27.605Z,100409.59
2022-11-08T01:01:54.198Z,100402.31
2022-11-08T01:04:20.870Z,100405.25
2022-11-08T01:06:47.816Z,100407.06
2022-11-08T01:09:14.292Z,100397.81
2022-11-08T01:11:45.240Z,100409.97
2022-11-08T01:14:12.636Z,100406.56
2022-11-08T01:16:39.159Z,100408.22
2022-11-08T01:19:05.638Z,100403.75
2022-11-08T01:21:32.136Z,100403.50
2022-11-08T01:23:58.599Z,100400.00
2022-11-08T01:26:27.656Z,100405.78
2022-11-08T01:28:54.983Z,100399.13
2022-11-08T01:31:23.978Z,100403.88
2022-11-08T01:33:51.978Z,100401.69
2022-11-08T01:36:22.086Z,100398.28
2022-11-08T01:38:48.865Z,100402.13
2022-11-08T01:41:16.663Z,100407.47
2022-11-08T01:43:51.715Z,100408.84
2022-11-08T01:46:18.219Z,100393.78
2022-11-08T01:49:00.509Z,100396.06
2022-11-08T01:51:32.485Z,100397.16
2022-11-08T01:54:02.402Z,100393.50
2022-11-08T01:56:28.893Z,100391.34
2022-11-08T01:58:58.106Z,100394.38
2022-11-08T02:01:24.774Z,100388.97
2022-11-08T02:03:51.511Z,100386.41
2022-11-08T02:06:18.704Z,100389.22
2022-11-08T02:08:45.684Z,100391.44
2022-11-08T02:11:14.817Z,100389.16
2022-11-08T02:13:41.495Z,100389.97
2022-11-08T02:16:12.717Z,100389.72
2022-11-08T02:18:39.840Z,100391.56
2022-11-08T02:21:17.431Z,100382.63
2022-11-08T02:23:53.416Z,100380.25
2022-11-08T02:26:23.554Z,100376.84
2022-11-08T02:28:50.697Z,100379.22
2022-11-08T02:31:18.797Z,100373.91
2022-11-08T02:33:46.688Z,100375.50
2022-11-08T02:36:17.204Z,100375.50
2022-11-08T02:38:47.883Z,100372.56
2022-11-08T02:41:14.427Z,100376.22
2022-11-08T02:43:40.882Z,100369.09
2022-11-08T02:46:07.311Z,100370.50
2022-11-08T02:48:33.762Z,100375.03
2022-11-08T02:51:00.287Z,100372.44
2022-11-08T02:53:27.052Z,100377.69
2022-11-08T02:55:53.506Z,100378.06
2022-11-08T02:58:20.483Z,100375.88
2022-11-08T03:00:47.171Z,100368.69
2022-11-08T03:03:13.945Z,100369.66
2022-11-08T03:05:40.486Z,100366.84
2022-11-08T03:08:07.013Z,100371.56
2022-11-08T03:10:33.461Z,100369.97
2022-11-08T03:13:02.234Z,100370.72
2022-11-08T03:15:29.723Z,100372.88
2022-11-08T03:17:57.691Z,100364.88
2022-11-08T03:20:28.292Z,100372.28
2022-11-08T03:22:59.536Z,100372.91
2022-11-08T03:25:26.438Z,100366.13
2022-11-08T03:27:52.886Z,100363.56
2022-11-08T03:30:19.593Z,100370.22
2022-11-08T03:32:49.841Z,100370.19
2022-11-08T03:35:16.424Z,100364.16
2022-11-08T03:37:52.478Z,100368.13
2022-11-08T03:40:19.343Z,100366.25
2022-11-08T03:42:46.322Z,100361.22
2022-11-08T03:45:13.614Z,100356.47
2022-11-08T03:47:42.645Z,100361.47
2022-11-08T03:50:09.996Z,100362.09
2022-11-08T03:52:42.557Z,100362.13
2022-11-08T03:55:10.616Z,100364.81
2022-11-08T03:57:39.103Z,100358.97
2022-11-08T04:00:07.586Z,100360.50
2022-11-08T04:02:34.051Z,100367.72
2022-11-08T04:05:00.600Z,100358.56
2022-11-08T04:07:28.615Z,100361.03
2022-11-08T04:09:55.815Z,100368.69
2022-11-08T04:12:40.936Z,100368.00
2022-11-08T04:15:15.307Z,100364.22
2022-11-08T04:18:11.386Z,100367.69
2022-11-08T04:21:01.357Z,100369.56
2022-11-08T04:23:28.665Z,100369.75
2022-11-08T04:25:57.397Z,100360.97
2022-11-08T04:28:29.166Z,100348.97
2022-11-08T04:31:00.876Z,100363.47
2022-11-08T04:33:27.409Z,100352.09
2022-11-08T04:35:54.135Z,100361.03
2022-11-08T04:38:21.356Z,100358.84
2022-11-08T04:40:47.903Z,100356.72
2022-11-08T04:43:14.637Z,100351.16
2022-11-08T04:45:41.165Z,100350.50
2022-11-08T04:48:07.695Z,100352.88
2022-11-08T04:50:34.191Z,100357.31
2022-11-08T04:53:01.243Z,100353.81
2022-11-08T04:55:27.782Z,100351.25
2022-11-08T04:57:57.843Z,100357.94
2022-11-08T05:00:24.421Z,100350.59
2022-11-08T05:02:50.910Z,100350.41
2022-11-08T05:05:17.350Z,100348.78
2022-11-08T05:07:44.473Z,100344.34
2022-11-08T05:10:10.925Z,100344.34
2022-11-08T05:12:37.483Z,100339.72
2022-11-08T05:15:04.220Z,100337.56
2022-11-08T05:17:30.658Z,100344.69
2022-11-08T05:20:15.664Z,100337.00
2022-11-08T05:23:00.436Z,100339.75
2022-11-08T05:25:26.872Z,100333.50
2022-11-08T05:27:53.324Z,100340.75
2022-11-08T05:30:19.811Z,100332.47
2022-11-08T05:32:46.226Z,100327.88
2022-11-08T05:35:12.669Z,100328.00
2022-11-08T05:37:41.926Z,100323.38
2022-11-08T05:40:09.176Z,100327.53
2022-11-08T05:42:35.584Z,100327.66
2022-11-08T05:45:06.567Z,100330.84
2022-11-08T05:47:35.694Z,100327.88
2022-11-08T05:50:02.143Z,100328.09
2022-11-08T05:52:28.554Z,100325.56
2022-11-08T05:54:55.030Z,100332.03
2022-11-08T05:57:22.366Z,100337.78
2022-11-08T05:59:48.744Z,100324.81
2022-11-08T06:02:17.115Z,100328.31
2022-11-08T06:04:44.028Z,100333.44
2022-11-08T06:07:10.446Z,100334.91
2022-11-08T06:09:36.891Z,100336.88
2022-11-08T06:12:03.513Z,100330.97
2022-11-08T06:14:29.973Z,100329.16
2022-11-08T06:16:56.406Z,100325.44
2022-11-08T06:19:22.815Z,100332.47
2022-11-08T06:21:49.335Z,100326.09
2022-11-08T06:24:17.427Z,100320.88
2022-11-08T06:26:44.664Z,100332.16
2022-11-08T06:29:11.218Z,100330.69
2022-11-08T06:31:42.710Z,100331.53
2022-11-08T06:34:10.004Z,100319.72
2022-11-08T06:36:36.502Z,100322.25
2022-11-08T06:39:03.017Z,100320.25
2022-11-08T06:41:29.955Z,100325.56
2022-11-08T06:43:56.463Z,100335.56
2022-11-08T06:46:23.311Z,100325.78
2022-11-08T06:48:49.857Z,100318.44
2022-11-08T06:51:16.770Z,100321.75
2022-11-08T06:53:43.727Z,100316.56
2022-11-08T06:56:10.633Z,100319.63
2022-11-08T06:58:37.799Z,100328.88
2022-11-08T07:01:08.866Z,100327.06
2022-11-08T07:03:36.019Z,100326.00
2022-11-08T07:06:06.949Z,100331.41
2022-11-08T07:08:35.068Z,100325.78
2022-11-08T07:11:02.680Z,100333.31
2022-11-08T07:13:29.868Z,100330.03
2022-11-08T07:16:00.192Z,100326.19
2022-11-08T07:18:27.036Z,100320.03
2022-11-08T07:20:53.842Z,100317.59
2022-11-08T07:23:20.552Z,100315.31
2022-11-08T07:25:47.116Z,100319.03
2022-11-08T07:28:17.610Z,100314.03
2022-11-08T07:30:45.729Z,100317.50
2022-11-08T07:33:12.662Z,100319.59
2022-11-08T07:35:39.564Z,100314.88
2022-11-08T07:38:06.377Z,100315.03
2022-11-08T07:40:34.549Z,100311.63
2022-11-08T07:43:16.747Z,100308.38
2022-11-08T07:45:43.663Z,100313.25
2022-11-08T07:48:13.227Z,100304.19
2022-11-08T07:50:41.719Z,100302.25
2022-11-08T07:53:08.614Z,100301.47
2022-11-08T07:55:39.781Z,100304.91
2022-11-08T07:58:07.551Z,100306.31
2022-11-08T08:00:38.782Z,100303.13
2022-11-08T08:03:08.237Z,100302.44
2022-11-08T08:05:38.611Z,100300.00
2022-11-08T08:08:05.546Z,100287.97
2022-11-08T08:10:33.184Z,100293.91
2022-11-08T08:13:00.362Z,100291.53
2022-11-08T08:15:27.112Z,100291.69
2022-11-08T08:17:53.846Z,100289.78
2022-11-08T08:20:20.448Z,100288.25
2022-11-08T08:22:48.795Z,100275.38
2022-11-08T08:25:16.526Z,100279.53
2022-11-08T08:27:53.410Z,100277.41
2022-11-08T08:30:21.020Z,100275.00
2022-11-08T08:33:02.158Z,100265.72
2022-11-08T08:35:36.294Z,100258.44
2022-11-08T08:38:03.977Z,100264.09
2022-11-08T08:40:30.970Z,100255.75
2022-11-08T08:43:01.274Z,100255.56
2022-11-08T08:45:27.858Z,100248.69
2022-11-08T08:47:55.938Z,100241.53
2022-11-08T08:50:23.462Z,100239.25
2022-11-08T08:52:49.988Z,100225.84
2022-11-08T08:55:17.043Z,100228.94
2022-11-08T08:57:47.920Z,100220.88
2022-11-08T09:03:04.503Z,100205.13
2022-11-08T09:05:32.148Z,100208.06
2022-11-08T09:07:58.588Z,100199.84
2022-11-08T09:10:25.551Z,100194.69
2022-11-08T09:12:52.347Z,100200.88
2022-11-08T09:15:19.706Z,100189.88
2022-11-08T09:17:46.144Z,100184.47
2022-11-08T09:20:14.380Z,100178.25
2022-11-08T09:22:40.841Z,100174.28
2022-11-08T09:25:07.489Z,100178.78
2022-11-08T09:27:33.885Z,100170.38
2022-11-08T09:30:00.313Z,100174.91
2022-11-08T09:32:54.098Z,100181.44
2022-11-08T09:35:16.455Z,100179.03
2022-11-08T09:37:45.619Z,100175.19
2022-11-08T09:40:40.792Z,100170.84
2022-11-08T09:43:22.210Z,100187.84
2022-11-08T09:45:50.657Z,100183.78
2022-11-08T09:48:40.565Z,100185.03
2022-11-08T09:51:13.766Z,100189.28
2022-11-08T09:53:52.165Z,100186.91
2022-11-08T09:56:23.357Z,100180.91
2022-11-08T09:59:36.823Z,100172.34
2022-11-08T10:02:14.167Z,100174.84
2022-11-08T10:04:40.663Z,100168.47
2022-11-08T10:07:23.961Z,100177.09
2022-11-08T10:10:27.598Z,100169.28
2022-11-08T10:13:27.513Z,100188.78
2022-11-08T10:16:10.519Z,100179.97
2022-11-08T10:18:42.640Z,100164.69
2022-11-08T10:21:57.348Z,100166.97
2022-11-08T10:24:26.526Z,100175.16
2022-11-08T10:26:57.290Z,100173.66
2022-11-08T10:29:39.910Z,100165.81
2022-11-08T10:32:20.537Z,100162.59
2022-11-08T10:35:13.147Z,100154.31
2022-11-08T10:37:43.244Z,100153.63
2022-11-08T10:40:24.854Z,100143.88
2022-11-08T10:43:14.611Z,100144.84
2022-11-08T10:45:41.293Z,100136.41
2022-11-08T10:48:11.815Z,100133.16
2022-11-08T10:51:04.646Z,100138.59
2022-11-08T10:53:32.417Z,100118.75
2022-11-08T10:56:01.694Z,100126.03
2022-11-08T10:58:39.963Z,100114.16
2022-11-08T11:01:15.189Z,100113.91
2022-11-08T11:03:42.354Z,100107.59
2022-11-08T11:06:30.895Z,100102.03
2022-11-08T11:09:00.521Z,100096.56
2022-11-08T11:11:32.904Z,100093.13
2022-11-08T11:14:22.752Z,100101.66
2022-11-08T11:16:56.629Z,100091.75
2022-11-08T11:19:25.497Z,100090.66
2022-11-08T11:21:56.278Z,100087.81
2022-11-08T11:24:23.458Z,100090.25
2022-11-08T11:27:19.465Z,100082.44
2022-11-08T11:29:45.929Z,100075.22
2022-11-08T11:32:23.374Z,100075.25
2022-11-08T11:34:58.353Z,100069.50
2022-11-08T11:37:45.292Z,100074.81
2022-11-08T11:40:35.140Z,100067.44
2022-11-08T11:43:45.866Z,100055.09
2022-11-08T11:46:22.682Z,100059.97
2022-11-08T11:51:30.202Z,100063.84
2022-11-08T11:53:58.164Z,100057.53
2022-11-08T11:56:30.895Z,100056.31
2022-11-08T11:59:19.062Z,100053.31
2022-11-08T12:01:54.724Z,100050.09
2022-11-08T12:04:36.480Z,100048.25
2022-11-08T12:07:11.859Z,100050.78
2022-11-08T12:10:16.272Z,100049.97
2022-11-08T12:12:56.944Z,100038.75
2022-11-08T12:15:57.497Z,100038.47
2022-11-08T12:18:42.821Z,100035.56
2022-11-08T12:21:25.201Z,100024.41
2022-11-08T12:24:04.775Z,100027.13
2022-11-08T12:26:53.537Z,100016.78
2022-11-08T12:29:27.139Z,100013.25
2022-11-08T12:32:14.492Z,100007.72
2022-11-08T12:34:57.482Z,100002.44
2022-11-08T12:37:26.775Z,99993.84
2022-11-08T12:40:07.177Z,100004.66
2022-11-08T12:42:55.316Z,100007.38
2022-11-08T12:45:29.430Z,99990.03
2022-11-08T12:47:58.705Z,99985.78
2022-11-08T12:51:12.776Z,99992.72
2022-11-08T12:53:57.477Z,99977.97
2022-11-08T12:56:42.986Z,99977.50
2022-11-08T12:59:38.553Z,99971.84
2022-11-08T13:02:17.528Z,99963.66
2022-11-08T13:04:56.866Z,99949.78
2022-11-08T13:07:48.363Z,99950.53
2022-11-08T13:10:47.682Z,99948.47
2022-11-08T13:13:24.848Z,99949.44
2022-11-08T13:16:10.179Z,99947.06
2022-11-08T13:18:44.294Z,99947.94
2022-11-08T13:21:25.838Z,99953.16
2022-11-08T13:23:53.934Z,99951.16
2022-11-08T13:26:21.616Z,99944.41
2022-11-08T13:28:48.968Z,99945.75
2022-11-08T13:31:41.743Z,99941.84
2022-11-08T13:34:11.178Z,99941.66
2022-11-08T13:36:49.526Z,99935.47
2022-11-08T13:39:24.100Z,99934.78
2022-11-08T13:42:00.739Z,99938.72
2022-11-08T13:44:55.095Z,99930.22
2022-11-08T13:47:33.753Z,99925.72
2022-11-08T13:50:34.357Z,99935.56
2022-11-08T13:53:03.864Z,99923.41
2022-11-08T13:55:42.772Z,99935.13
2022-11-08T13:58:33.954Z,99928.81
2022-11-08T14:01:03.597Z,99933.03
2022-11-08T14:03:33.247Z,99932.41
2022-11-08T14:06:13.515Z,99936.31
2022-11-08T14:09:01.119Z,99936.09
2022-11-08T14:11:33.744Z,99932.91
2022-11-08T14:14:12.381Z,99934.72
2022-11-08T14:16:55.216Z,99942.44
2022-11-08T14:19:25.233Z,99935.28
2022-11-08T14:21:56.201Z,99935.44
2022-11-08T14:24:35.864Z,99934.63
2022-11-08T14:27:03.012Z,99933.16
2022-11-08T14:29:29.654Z,99934.13
2022-11-08T14:32:25.430Z,99937.84
2022-11-08T14:34:51.859Z,99943.28
2022-11-08T14:37:28.138Z,99932.72
2022-11-08T14:39:54.693Z,99930.91
2022-11-08T14:42:24.567Z,99926.59
2022-11-08T14:44:56.713Z,99931.22
2022-11-08T14:47:30.192Z,99931.75
2022-11-08T14:49:58.243Z,99932.00
2022-11-08T14:52:30.084Z,99940.81
2022-11-08T14:54:59.568Z,99937.06
2022-11-08T14:57:35.483Z,99934.22
2022-11-08T15:00:07.174Z,99934.09
2022-11-08T15:02:33.890Z,99937.84
2022-11-08T15:05:00.409Z,99944.03
2022-11-08T15:07:27.054Z,99935.69
2022-11-08T15:09:54.227Z,99932.31
2022-11-08T15:12:24.258Z,99939.00
2022-11-08T15:14:52.286Z,99932.47
2022-11-08T15:17:39.256Z,99932.88
2022-11-08T15:20:13.000Z,99934.06
2022-11-08T15:22:40.099Z,99921.75
2022-11-08T15:25:25.385Z,99931.38
2022-11-08T15:27:54.618Z,99926.03
2022-11-08T15:30:22.965Z,99929.56
2022-11-08T15:32:50.555Z,99938.84
2022-11-08T15:35:46.827Z,99935.75
2022-11-08T15:38:32.136Z,99942.78
2022-11-08T15:41:01.118Z,99933.31
2022-11-08T15:43:30.632Z,99936.00
2022-11-08T15:45:58.920Z,99924.78
2022-11-08T15:48:29.338Z,99934.56
2022-11-08T15:50:56.860Z,99931.38
2022-11-08T15:53:25.623Z,99926.00
2022-11-08T15:56:02.157Z,99930.91
2022-11-08T15:58:31.499Z,99926.78
2022-11-08T16:01:00.313Z,99933.88
2022-11-08T16:03:27.249Z,99939.69
2022-11-08T16:05:53.841Z,99939.47
2022-11-08T16:08:21.161Z,99939.84
2022-11-08T16:11:13.872Z,99942.91
2022-11-08T16:13:40.562Z,99932.81
2022-11-08T16:16:12.674Z,99930.81
2022-11-08T16:18:39.894Z,99938.47
2022-11-08T16:21:06.895Z,99932.66
2022-11-08T16:23:33.457Z,99937.22
2022-11-08T16:26:03.418Z,99931.81
2022-11-08T16:28:35.332Z,99935.88
2022-11-08T16:31:03.522Z,99931.34
2022-11-08T16:33:31.338Z,99931.59
2022-11-08T16:36:01.155Z,99935.19
2022-11-08T16:38:36.716Z,99942.16
2022-11-08T16:41:04.662Z,99946.69
2022-11-08T16:43:31.948Z,99945.94
2022-11-08T16:46:05.653Z,99956.53
2022-11-08T16:48:33.907Z,99961.69
2022-11-08T16:53:43.386Z,99966.06
2022-11-08T16:56:38.742Z,99975.16
2022-11-08T16:59:05.177Z,99968.44
2022-11-08T17:01:33.599Z,99984.75
2022-11-08T17:04:00.061Z,99977.31
2022-11-08T17:06:26.658Z,99964.81
2022-11-08T17:08:53.146Z,99969.94
2022-11-08T17:11:48.563Z,99975.50
2022-11-08T17:14:31.810Z,99967.22
2022-11-08T17:17:07.155Z,99969.06
2022-11-08T17:19:33.579Z,99965.34
2022-11-08T17:22:00.043Z,99958.19
2022-11-08T17:24:28.403Z,99943.63
2022-11-08T17:26:54.818Z,99939.59
2022-11-08T17:29:21.239Z,99935.91
2022-11-08T17:31:48.040Z,99944.53
2022-11-08T17:34:14.594Z,99946.09
2022-11-08T17:36:41.520Z,99947.75
2022-11-08T17:39:08.204Z,99942.25
2022-11-08T17:41:34.681Z,99934.06
2022-11-08T17:44:01.105Z,99937.56
2022-11-08T17:46:27.602Z,99937.66
2022-11-08T17:48:56.818Z,99941.28
2022-11-08T17:51:23.273Z,99960.78
2022-11-08T17:53:49.975Z,99964.31
2022-11-08T17:56:16.411Z,99957.59
2022-11-08T17:58:42.963Z,99973.06
2022-11-08T18:01:09.605Z,99961.38
2022-11-08T18:03:36.324Z,99966.97
2022-11-08T18:06:09.705Z,99965.19
2022-11-08T18:08:36.292Z,99960.31
2022-11-08T18:11:03.894Z,99950.31
2022-11-08T18:13:30.864Z,99964.78
2022-11-08T18:16:11.913Z,99969.66
2022-11-08T18:18:38.982Z,99967.84
2022-11-08T18:21:06.914Z,99960.91
2022-11-08T18:23:33.594Z,99970.72
2022-11-08T18:26:00.529Z,99966.47
2022-11-08T18:28:27.551Z,99969.44
2022-11-08T18:30:54.015Z,99973.00
2022-11-08T18:33:21.321Z,99967.78
2022-11-08T18:35:48.158Z,99972.34
2022-11-08T18:38:14.863Z,99970.53
2022-11-08T18:40:44.910Z,99977.16
2022-11-08T18:43:11.397Z,99975.47
2022-11-08T18:45:38.104Z,99976.41
2022-11-08T18:48:04.692Z,99968.78
2022-11-08T18:50:31.152Z,99971.19
2022-11-08T18:53:03.070Z,99969.13
2022-11-08T18:55:31.331Z,99967.88
2022-11-08T18:57:57.804Z,99970.09
2022-11-08T19:00:24.334Z,99968.06
2022-11-08T19:02:50.865Z,99958.75
2022-11-08T19:05:17.402Z,99978.78
2022-11-08T19:07:43.877Z,99981.28
2022-11-08T19:10:10.552Z,99976.41
2022-11-08T19:12:37.088Z,99986.16
2022-11-08T19:15:03.890Z,99984.34
2022-11-08T19:17:31.842Z,99980.81
2022-11-08T19:19:58.276Z,99977.78
2022-11-08T19:22:24.705Z,99980.88
2022-11-08T19:24:51.096Z,99975.50
2022-11-08T19:27:17.596Z,99977.81
2022-11-08T19:29:44.047Z,99969.00
2022-11-08T19:32:10.470Z,99961.34
2022-11-08T19:34:37.001Z,99968.50
2022-11-08T19:37:03.747Z,99958.00
2022-11-08T19:39:30.333Z,99970.56
2022-11-08T19:41:56.728Z,99963.16
2022-11-08T19:44:23.179Z,99960.72
2022-11-08T19:46:49.622Z,99955.34
2022-11-08T19:49:16.078Z,99954.25
2022-11-08T19:51:42.509Z,99954.72
2022-11-08T19:54:12.736Z,99947.75
2022-11-08T19:59:25.651Z,99957.94
2022-11-08T20:01:52.198Z,99961.06
2022-11-08T20:04:19.284Z,99970.94
2022-11-08T20:06:46.423Z,99963.78
2022-11-08T20:09:13.224Z,99951.78
2022-11-08T20:11:41.309Z,99953.66
2022-11-08T20:14:10.585Z,99952.38
2022-11-08T20:16:40.871Z,99953.72
2022-11-08T20:19:12.781Z,99960.50
2022-11-08T20:21:45.620Z,99958.22
2022-11-08T20:24:12.805Z,99960.41
2022-11-08T20:26:41.297Z,99966.06
2022-11-08T20:29:08.400Z,99959.03
2022-11-08T20:31:35.308Z,99968.94
2022-11-08T20:34:05.574Z,99958.50
2022-11-08T20:36:35.382Z,99965.78
2022-11-08T20:39:06.881Z,99965.78
2022-11-08T20:41:35.657Z,99967.97
2022-11-08T20:44:02.782Z,99964.78
2022-11-08T20:46:29.581Z,99964.16
2022-11-08T20:49:00.210Z,99957.56
2022-11-08T20:51:28.250Z,99957.00
2022-11-08T20:53:56.015Z,99968.94
2022-11-08T20:56:23.540Z,99959.75
2022-11-08T20:58:51.333Z,99962.66
2022-11-08T21:01:23.105Z,99956.75
2022-11-08T21:03:51.171Z,99963.34
2022-11-08T21:06:20.249Z,99949.19
2022-11-08T21:09:10.911Z,99941.81
2022-11-08T21:11:36.995Z,99953.91
2022-11-08T21:14:04.715Z,99956.38
2022-11-08T21:16:38.591Z,99953.09
2022-11-08T21:19:13.792Z,99941.03
2022-11-08T21:21:40.507Z,99943.75
2022-11-08T21:24:07.514Z,99954.72
2022-11-08T21:26:36.963Z,99965.25
2022-11-08T21:29:04.545Z,99955.56
2022-11-08T21:31:31.486Z,99957.97
2022-11-08T21:33:58.207Z,99955.81
2022-11-08T21:36:26.804Z,99958.66
2022-11-08T21:38:54.111Z,99949.34
2022-11-08T21:41:20.990Z,99954.56
2022-11-08T21:43:47.640Z,99954.41
2022-11-08T21:46:25.202Z,99967.75
2022-11-08T21:48:59.409Z,99968.47
2022-11-08T21:51:26.780Z,99962.94
2022-11-08T21:53:55.538Z,99956.56
2022-11-08T21:56:24.272Z,99960.66
2022-11-08T21:58:50.958Z,99963.75
2022-11-08T22:01:17.728Z,99965.03
2022-11-08T22:03:44.468Z,99966.28
2022-11-08T22:06:10.936Z,99978.06
2022-11-08T22:08:37.362Z,99984.19
2022-11-08T22:11:04.208Z,99963.69
2022-11-08T22:13:30.629Z,99962.16
2022-11-08T22:15:57.181Z,99965.78
2022-11-08T22:18:36.709Z,99958.84
2022-11-08T22:21:27.987Z,99960.34
2022-11-08T22:23:54.463Z,99960.84
2022-11-08T22:26:20.901Z,99973.72
2022-11-08T22:28:47.313Z,99962.66
2022-11-08T22:31:13.816Z,99963.41
2022-11-08T22:33:40.256Z,99966.28
2022-11-08T22:36:06.955Z,99972.22
2022-11-08T22:38:33.509Z,99971.03
2022-11-08T22:40:59.929Z,99979.00
2022-11-08T22:43:26.384Z,99972.03
2022-11-08T22:45:52.803Z,99975.03
2022-11-08T22:48:19.520Z,99984.84
2022-11-08T22:50:46.092Z,99972.44
2022-11-08T22:53:12.497Z,99979.78
2022-11-08T22:55:38.945Z,99979.69
2022-11-08T22:58:05.450Z,99979.53
2022-11-08T23:00:31.854Z,99983.50
2022-11-08T23:02:58.252Z,99970.94
2022-11-08T23:05:24.679Z,99978.63
2022-11-08T23:07:51.138Z,99975.97
2022-11-08T23:10:17.741Z,99974.16
2022-11-08T23:13:02.732Z,99972.63
2022-11-08T23:15:51.078Z,99973.56
2022-11-08T23:18:17.535Z,99975.50
2022-11-08T23:21:02.576Z,99969.78
2022-11-08T23:23:47.852Z,99975.66
2022-11-08T23:26:14.381Z,99979.53
2022-11-08T23:28:59.386Z,99976.31
2022-11-08T23:31:37.759Z,99970.63
2022-11-08T23:34:04.963Z,99964.06
2022-11-08T23:36:31.420Z,99966.72
2022-11-08T23:38:58.500Z,99963.19
2022-11-08T23:41:43.356Z,99964.28
2022-11-08T23:44:25.206Z,99967.06
2022-11-08T23:46:56.770Z,99966.06
2022-11-08T23:49:23.651Z,99964.00
2022-11-08T23:52:08.326Z,99960.47
2022-11-08T23:54:37.691Z,99969.16
2022-11-08T23:57:09.995Z,99962.13
2022-11-08T23:59:39.238Z,99965.06
